createdAt,value
2023-03-26T03:36:02.209Z,99433
2023-03-26T03:41:51.560Z,99427
2023-03-26T03:47:44.114Z,99420
2023-03-26T03:53:35.604Z,99406
2023-03-26T03:59:26.531Z,99394
2023-03-26T04:05:16.359Z,99387
2023-03-26T04:11:08.808Z,99372
2023-03-26T04:17:01.356Z,99368
2023-03-26T04:22:58.243Z,99363
2023-03-26T04:28:51.269Z,99355
2023-03-26T04:34:46.235Z,99344
2023-03-26T04:41:42.400Z,99334
2023-03-26T04:47:32.554Z,99309
2023-03-26T04:53:24.527Z,99308
2023-03-26T04:59:18.949Z,99295
2023-03-26T05:05:11.571Z,99275
2023-03-26T05:11:06.284Z,99252
2023-03-26T05:17:00.403Z,99244
2023-03-26T05:22:58.398Z,99261
2023-03-26T05:28:49.231Z,99256
2023-03-26T05:34:42.839Z,99245
2023-03-26T05:40:34.802Z,99231
2023-03-26T05:46:27.059Z,99219
2023-03-26T05:52:20.987Z,99210
2023-03-26T05:58:13.252Z,99195
2023-03-26T06:04:04.341Z,99188
2023-03-26T06:09:58.666Z,99175
2023-03-26T06:15:50.183Z,99177
2023-03-26T06:21:42.391Z,99168
2023-03-26T06:27:32.174Z,99160
2023-03-26T06:33:27.032Z,99163
2023-03-26T06:39:17.814Z,99148
2023-03-26T06:45:08.927Z,99144
2023-03-26T06:51:00.531Z,99140
2023-03-26T06:56:50.636Z,99130
2023-03-26T07:02:42.217Z,99129
2023-03-26T07:08:35.338Z,99123
2023-03-26T07:14:27.003Z,99119
2023-03-26T07:20:18.961Z,99110
2023-03-26T07:26:11.603Z,99104
2023-03-26T07:32:04.077Z,99090
2023-03-26T07:37:56.346Z,99088
2023-03-26T07:43:49.137Z,99072
2023-03-26T07:49:41.197Z,99070
2023-03-26T07:55:33.516Z,99058
2023-03-26T08:01:25.180Z,99059
2023-03-26T08:07:17.264Z,99043
2023-03-26T08:13:07.611Z,99042
2023-03-26T08:18:58.330Z,99038
2023-03-26T08:24:48.254Z,99036
2023-03-26T08:30:37.982Z,99020
2023-03-26T08:36:29.875Z,99026
2023-03-26T08:42:19.697Z,99019
2023-03-26T08:48:11.734Z,99014
2023-03-26T08:54:03.284Z,99014
2023-03-26T08:59:57.213Z,98999
2023-03-26T09:05:51.334Z,98992
2023-03-26T09:11:42.942Z,98978
2023-03-26T09:17:36.118Z,98969
2023-03-26T09:23:29.237Z,98959
2023-03-26T09:29:21.203Z,98951
2023-03-26T09:35:16.976Z,98933
2023-03-26T09:41:08.695Z,98937
2023-03-26T09:47:00.587Z,98932
2023-03-26T09:52:52.202Z,98917
2023-03-26T09:58:44.432Z,98920
2023-03-26T10:04:37.384Z,98915
2023-03-26T10:10:29.682Z,98901
2023-03-26T10:16:21.943Z,98895
2023-03-26T10:22:14.660Z,98887
2023-03-26T10:28:06.809Z,98890
2023-03-26T10:33:58.990Z,98877
2023-03-26T10:39:51.037Z,98871
2023-03-26T10:45:46.240Z,98875
2023-03-26T10:51:41.336Z,98864
2023-03-26T11:10:12.922Z,98840
2023-03-26T11:16:05.361Z,98843
2023-03-26T11:22:00.650Z,98832
2023-03-26T11:27:52.073Z,98834
2023-03-26T11:33:52.442Z,98835
2023-03-26T11:39:45.227Z,98831
2023-03-26T11:45:38.146Z,98825
2023-03-26T11:51:31.554Z,98834
2023-03-26T11:57:22.702Z,98827
2023-03-26T12:03:15.820Z,98844
2023-03-26T12:09:08.184Z,98856
2023-03-26T12:15:05.477Z,98876
2023-03-26T12:20:58.793Z,98877
2023-03-26T12:26:51.617Z,98866
2023-03-26T12:32:55.277Z,98860
2023-03-26T12:40:08.205Z,98869
2023-03-26T12:48:06.406Z,98867
2023-03-26T12:53:58.985Z,98879
2023-03-26T12:59:53.882Z,98882
2023-03-26T13:05:49.713Z,98879
2023-03-26T13:11:42.917Z,98883
2023-03-26T13:17:38.391Z,98878
2023-03-26T13:23:31.426Z,98874
2023-03-26T13:29:36.204Z,98880
2023-03-26T13:41:41.692Z,98877
2023-03-26T13:47:38.617Z,98875
2023-03-26T13:53:44.944Z,98880
2023-03-26T13:59:38.318Z,98881
2023-03-26T14:05:30.610Z,98883
2023-03-26T14:11:38.356Z,98883
2023-03-26T14:17:38.300Z,98890
2023-03-26T14:23:35.587Z,98882
2023-03-26T14:35:33.960Z,98891
2023-03-26T14:41:30.904Z,98905
2023-03-26T14:47:54.579Z,98903
2023-03-26T14:54:02.436Z,98907
2023-03-26T14:59:56.903Z,98909
2023-03-26T15:05:51.025Z,98906
2023-03-26T15:12:15.996Z,98911
2023-03-26T15:18:23.954Z,98921
2023-03-26T15:24:19.041Z,98918
2023-03-26T15:30:11.375Z,98932
2023-03-26T15:36:03.105Z,98939
2023-03-26T15:41:54.961Z,98935
2023-03-26T15:47:48.855Z,98940
2023-03-26T15:53:40.212Z,98945
2023-03-26T15:59:32.723Z,98954
2023-03-26T16:05:24.003Z,98963
2023-03-26T16:11:18.621Z,98969
2023-03-26T16:17:10.821Z,98972
2023-03-26T16:23:05.242Z,98970
2023-03-26T16:28:57.978Z,98997
2023-03-26T16:34:48.886Z,98996
2023-03-26T16:40:41.798Z,99010
2023-03-26T16:46:34.572Z,99030
2023-03-26T16:52:30.049Z,99035
2023-03-26T16:58:34.120Z,99047
2023-03-26T17:04:43.386Z,99063
2023-03-26T17:10:36.414Z,99065
2023-03-26T17:16:29.690Z,99081
2023-03-26T17:22:22.313Z,99090
2023-03-26T17:28:14.372Z,99110
2023-03-26T17:34:21.699Z,99127
2023-03-26T17:40:14.764Z,99132
2023-03-26T17:46:13.012Z,99148
2023-03-26T17:52:11.364Z,99156
2023-03-26T18:03:54.721Z,99186
2023-03-26T18:09:51.577Z,99196
2023-03-26T18:15:52.378Z,99217
2023-03-26T18:21:44.786Z,99223
2023-03-26T18:27:42.215Z,99244
2023-03-26T18:33:34.502Z,99263
2023-03-26T18:39:27.490Z,99277
2023-03-26T18:45:19.503Z,99290
2023-03-26T18:51:13.051Z,99302
2023-03-26T18:57:19.046Z,99311
2023-03-26T19:03:10.242Z,99319
2023-03-26T19:09:02.776Z,99326
2023-03-26T19:15:03.977Z,99340
2023-03-26T19:20:55.645Z,99351
2023-03-26T19:27:03.802Z,99378
2023-03-26T19:33:15.149Z,99379
2023-03-26T19:39:06.887Z,99398
2023-03-26T19:45:00.931Z,99404
2023-03-26T19:50:59.750Z,99419
2023-03-26T19:56:59.113Z,99426
2023-03-26T20:02:51.226Z,99434
2023-03-26T20:08:44.058Z,99453
2023-03-26T20:14:35.806Z,99474
2023-03-26T20:20:27.374Z,99482
2023-03-26T20:26:18.825Z,99494
2023-03-26T20:32:10.303Z,99508
2023-03-26T20:38:04.138Z,99512
2023-03-26T20:43:57.421Z,99524
2023-03-26T20:49:52.508Z,99529
2023-03-26T20:55:51.594Z,99547
2023-03-26T21:01:57.107Z,99552
2023-03-26T21:07:50.662Z,99568
2023-03-26T21:13:43.283Z,99584
2023-03-26T21:19:35.393Z,99584
2023-03-26T21:25:27.578Z,99601
2023-03-26T21:31:20.088Z,99616
2023-03-26T21:37:13.574Z,99626
2023-03-26T21:43:03.920Z,99638
2023-03-26T21:50:05.532Z,99652
2023-03-26T21:55:59.802Z,99670
2023-03-26T22:01:52.429Z,99677
2023-03-26T22:07:47.600Z,99696
2023-03-26T22:13:40.550Z,99706
2023-03-26T22:19:36.024Z,99724
2023-03-26T22:25:28.148Z,99725
2023-03-26T22:31:20.290Z,99745
2023-03-26T22:37:13.946Z,99760
2023-03-26T22:43:07.807Z,99788
2023-03-26T22:49:00.583Z,99807
2023-03-26T23:01:16.556Z,99835
